Time;durP1;ratioP1;P1;durP2;ratioP2;P2;SDS_P1;SDS_P2;PMS_P1;PMS_P2;Temp;Humidity;BMP_temperature;BMP_pressure;BME280_temperature;BME280_humidity;BME280_pressure;Samples;Min_cycle;Max_cycle;Signal;HPM_P1;HPM_P2
2022/07/21 07:03:54;;;;;;;5.25;4.75;;;;;;;;;;12706464;23;20001;-84
2022/07/21 07:09:19;;;;;;;5.30;4.80;;;;;;;;;;12667363;23;20010;-88
2022/07/21 07:14:27;;;;;;;6.20;5.30;;;;;;;;;;12559547;23;20143;-87
2022/07/21 07:20:03;;;;;;;5.60;4.90;;;;;;;;;;12569719;23;19998;-88
2022/07/21 07:25:32;;;;;;;6.95;6.30;;;;;;;;;;12578160;23;20075;-86
2022/07/21 07:30:40;;;;;;;7.43;6.68;;;;;;;;;;12394490;24;20525;-86
2022/07/21 07:36:03;;;;;;;12.95;11.65;;;;;;;;;;12387966;24;20004;-85
2022/07/21 07:41:11;;;;;;;8.85;7.55;;;;;;;;;;12362872;24;20020;-85
2022/07/21 07:52:10;;;;;;;10.90;9.45;;;;;;;;;;12497698;23;20078;-86
2022/07/21 07:57:46;;;;;;;10.48;9.32;;;;;;;;;;12488396;23;20330;-86
2022/07/21 08:02:55;;;;;;;7.25;6.50;;;;;;;;;;12685007;23;20013;-86
2022/07/21 08:25:30;;;;;;;8.90;6.57;;;;;;;;;;12683092;23;20017;-86
2022/07/21 08:30:37;;;;;;;9.57;6.88;;;;;;;;;;12658019;23;20009;-87
2022/07/21 08:35:38;;;;;;;6.57;5.88;;;;;;;;;;12658394;23;20006;-85
2022/07/21 08:40:42;;;;;;;7.35;5.80;;;;;;;;;;12667824;23;20338;-86
2022/07/21 08:45:43;;;;;;;5.88;5.38;;;;;;;;;;12699927;23;20013;-85
2022/07/21 08:50:44;;;;;;;9.13;6.55;;;;;;;;;;12686776;23;20014;-84
2022/07/21 08:55:45;;;;;;;9.38;6.15;;;;;;;;;;12660205;23;20484;-85
2022/07/21 09:00:48;;;;;;;8.27;7.13;;;;;;;;;;12659291;23;20418;-86
2022/07/21 09:05:58;;;;;;;8.15;7.40;;;;;;;;;;12659820;23;20005;-86
2022/07/21 09:11:12;;;;;;;6.65;6.05;;;;;;;;;;12669474;23;20391;-85
2022/07/21 09:16:13;;;;;;;6.85;6.15;;;;;;;;;;12662493;23;20006;-85
2022/07/21 09:21:16;;;;;;;5.75;5.15;;;;;;;;;;12685355;23;20013;-84
2022/07/21 09:26:20;;;;;;;7.20;4.55;;;;;;;;;;12680739;23;20010;-87
2022/07/21 09:31:21;;;;;;;6.07;4.25;;;;;;;;;;12671455;23;20009;-87
2022/07/21 09:36:22;;;;;;;6.10;4.38;;;;;;;;;;12683224;23;20025;-86
2022/07/21 09:41:24;;;;;;;5.88;4.45;;;;;;;;;;12664810;23;20021;-85
2022/07/21 09:46:29;;;;;;;6.78;4.40;;;;;;;;;;12662432;23;20350;-87
2022/07/21 09:51:31;;;;;;;5.68;4.43;;;;;;;;;;12662437;23;20374;-85
2022/07/21 09:56:36;;;;;;;7.85;5.10;;;;;;;;;;12661982;23;20009;-86
2022/07/21 10:01:40;;;;;;;5.43;4.90;;;;;;;;;;12662061;23;20038;-86
2022/07/21 10:06:42;;;;;;;5.78;4.93;;;;;;;;;;12683072;23;20010;-87
2022/07/21 10:11:43;;;;;;;5.50;4.90;;;;;;;;;;12678369;23;20077;-86
2022/07/21 10:16:44;;;;;;;6.22;5.18;;;;;;;;;;12667743;23;20010;-87
2022/07/21 10:22:00;;;;;;;6.45;5.38;;;;;;;;;;12664265;23;20350;-87
2022/07/21 10:27:12;;;;;;;5.75;5.15;;;;;;;;;;12660394;23;20010;-83
2022/07/21 10:32:15;;;;;;;5.85;5.32;;;;;;;;;;12664150;23;20025;-84
2022/07/21 10:37:42;;;;;;;6.13;5.18;;;;;;;;;;12660201;23;20334;-86
2022/07/21 10:42:43;;;;;;;8.35;5.60;;;;;;;;;;12648282;23;20461;-84
2022/07/21 10:47:44;;;;;;;6.55;5.45;;;;;;;;;;12672663;23;20014;-82
2022/07/21 10:53:05;;;;;;;5.63;5.10;;;;;;;;;;12693211;23;20029;-86
2022/07/21 10:58:15;;;;;;;8.10;6.70;;;;;;;;;;12667647;23;20069;-85
2022/07/21 11:03:23;;;;;;;7.10;6.20;;;;;;;;;;12676321;23;20006;-84
2022/07/21 11:08:30;;;;;;;8.40;6.13;;;;;;;;;;12667622;23;20335;-84
2022/07/21 11:13:51;;;;;;;7.68;6.45;;;;;;;;;;12673096;23;20080;-85
2022/07/21 11:18:53;;;;;;;7.22;6.35;;;;;;;;;;12675824;23;20006;-85
2022/07/21 11:23:55;;;;;;;8.65;6.65;;;;;;;;;;12719523;23;20010;-85
2022/07/21 11:29:29;;;;;;;10.15;7.03;;;;;;;;;;12675555;23;20087;-85
2022/07/21 11:34:51;;;;;;;8.40;7.13;;;;;;;;;;12680104;23;20434;-85
2022/07/21 11:40:12;;;;;;;8.82;7.60;;;;;;;;;;12725543;23;19990;-83
2022/07/21 11:45:28;;;;;;;7.63;6.60;;;;;;;;;;12727288;23;20010;-84
2022/07/21 11:50:35;;;;;;;11.55;7.53;;;;;;;;;;12702543;23;20046;-84
2022/07/21 11:55:41;;;;;;;9.60;8.35;;;;;;;;;;12670875;23;20026;-84
2022/07/21 12:00:42;;;;;;;12.93;9.18;;;;;;;;;;12664529;23;19998;-85
2022/07/21 12:05:44;;;;;;;9.02;7.35;;;;;;;;;;12692867;23;19998;-85
2022/07/21 12:10:45;;;;;;;9.27;6.90;;;;;;;;;;12667832;23;20013;-84
2022/07/21 12:15:46;;;;;;;7.93;7.13;;;;;;;;;;12685114;23;19993;-82
2022/07/21 12:20:48;;;;;;;6.60;5.90;;;;;;;;;;12704983;23;20021;-84
2022/07/21 12:25:50;;;;;;;6.20;5.60;;;;;;;;;;12700468;23;20006;-84
2022/07/21 12:30:52;;;;;;;7.13;6.03;;;;;;;;;;12681554;23;20010;-85
2022/07/21 12:36:01;;;;;;;6.40;5.80;;;;;;;;;;12676719;23;20006;-84
2022/07/21 12:41:02;;;;;;;6.00;5.40;;;;;;;;;;12673906;23;20010;-84
2022/07/21 12:46:10;;;;;;;7.15;5.78;;;;;;;;;;12710175;23;20005;-85
2022/07/21 12:51:16;;;;;;;5.25;4.70;;;;;;;;;;12697773;23;20008;-84
2022/07/21 12:56:48;;;;;;;5.20;4.70;;;;;;;;;;12593531;23;20089;-82
2022/07/21 13:01:49;;;;;;;5.47;4.45;;;;;;;;;;12591869;23;20019;-83
2022/07/21 13:06:51;;;;;;;4.93;4.43;;;;;;;;;;12713877;23;20026;-82
2022/07/21 13:11:52;;;;;;;6.70;6.00;;;;;;;;;;12694474;23;20101;-82
2022/07/21 13:16:59;;;;;;;5.20;4.70;;;;;;;;;;12696286;23;19990;-83
2022/07/21 13:22:02;;;;;;;5.43;4.93;;;;;;;;;;12702295;23;19985;-83
2022/07/21 13:27:04;;;;;;;5.20;4.70;;;;;;;;;;12588063;23;20105;-80
2022/07/21 13:32:05;;;;;;;5.70;4.50;;;;;;;;;;12561944;23;20003;-80
2022/07/21 13:37:11;;;;;;;4.35;3.63;;;;;;;;;;12563006;23;20063;-80
2022/07/21 13:42:12;;;;;;;5.60;4.07;;;;;;;;;;12562659;23;20003;-80
2022/07/21 13:47:13;;;;;;;6.00;5.40;;;;;;;;;;12560850;23;20015;-81
2022/07/21 13:52:14;;;;;;;5.38;4.88;;;;;;;;;;12562350;23;20053;-81
2022/07/21 13:57:15;;;;;;;5.72;5.10;;;;;;;;;;12534948;23;20018;-82
2022/07/21 14:02:16;;;;;;;5.70;5.10;;;;;;;;;;12534462;23;20040;-81
2022/07/21 14:07:17;;;;;;;6.30;5.70;;;;;;;;;;12557823;23;20035;-80
2022/07/21 14:12:18;;;;;;;5.30;4.80;;;;;;;;;;12558339;23;20343;-80
2022/07/21 14:17:19;;;;;;;5.68;4.72;;;;;;;;;;12558113;23;20013;-80
2022/07/21 14:22:21;;;;;;;5.22;4.68;;;;;;;;;;12561458;23;20094;-79
2022/07/21 14:27:22;;;;;;;5.15;4.63;;;;;;;;;;12561807;23;20011;-80
2022/07/21 14:32:23;;;;;;;4.25;3.78;;;;;;;;;;12563941;23;20018;-80
2022/07/21 14:37:25;;;;;;;4.47;4.07;;;;;;;;;;12563991;23;20007;-80
2022/07/21 14:42:26;;;;;;;4.70;4.30;;;;;;;;;;12561933;23;20007;-80
2022/07/21 14:47:27;;;;;;;5.80;5.20;;;;;;;;;;12564562;23;20006;-80
2022/07/21 14:52:28;;;;;;;4.72;3.75;;;;;;;;;;12560762;23;20013;-81
2022/07/21 14:57:29;;;;;;;5.00;4.30;;;;;;;;;;12536407;23;20078;-80
2022/07/21 15:02:30;;;;;;;3.90;3.50;;;;;;;;;;12536118;23;20058;-81
2022/07/21 15:07:31;;;;;;;3.65;2.80;;;;;;;;;;12561507;23;20077;-80
2022/07/21 15:12:32;;;;;;;4.45;3.67;;;;;;;;;;12562139;23;20003;-80
2022/07/21 15:17:33;;;;;;;4.07;3.67;;;;;;;;;;12567670;23;20003;-81
2022/07/21 15:22:34;;;;;;;3.60;3.30;;;;;;;;;;12563742;23;20047;-81
2022/07/21 15:27:36;;;;;;;4.63;3.60;;;;;;;;;;12563307;23;20458;-81
2022/07/21 15:32:37;;;;;;;4.13;3.00;;;;;;;;;;12563032;23;20517;-81
2022/07/21 15:37:38;;;;;;;4.13;3.72;;;;;;;;;;12563688;23;20065;-80
2022/07/21 15:42:41;;;;;;;3.03;2.72;;;;;;;;;;12562371;23;20089;-81
2022/07/21 15:47:42;;;;;;;3.22;2.92;;;;;;;;;;12562695;23;20081;-80
2022/07/21 15:52:44;;;;;;;4.60;4.20;;;;;;;;;;12564060;23;20007;-81
2022/07/21 15:57:45;;;;;;;4.82;4.30;;;;;;;;;;12561438;23;20011;-81
2022/07/21 16:02:47;;;;;;;4.40;3.60;;;;;;;;;;12560392;23;20006;-80
2022/07/21 16:07:49;;;;;;;4.70;3.28;;;;;;;;;;12560379;23;20093;-80
2022/07/21 16:12:52;;;;;;;4.20;3.80;;;;;;;;;;12561255;23;20011;-80
2022/07/21 16:17:53;;;;;;;4.47;4.07;;;;;;;;;;12562437;23;20003;-80
2022/07/21 16:22:55;;;;;;;5.22;3.28;;;;;;;;;;12537011;23;20085;-81
2022/07/21 16:27:56;;;;;;;4.13;3.65;;;;;;;;;;12570408;23;20150;-81
2022/07/21 16:32:57;;;;;;;4.88;3.63;;;;;;;;;;12577149;23;20325;-82
2022/07/21 16:37:58;;;;;;;7.30;6.47;;;;;;;;;;12576055;23;20062;-81
2022/07/21 16:42:59;;;;;;;4.88;4.18;;;;;;;;;;12578430;23;20011;-81
2022/07/21 16:48:01;;;;;;;4.30;3.72;;;;;;;;;;12577598;23;20297;-81
2022/07/21 16:53:02;;;;;;;3.65;3.35;;;;;;;;;;12575906;23;20431;-81
2022/07/21 16:58:03;;;;;;;3.88;3.58;;;;;;;;;;12575190;23;20440;-82
2022/07/21 17:03:04;;;;;;;4.35;3.67;;;;;;;;;;12575989;23;20007;-81
2022/07/21 17:08:05;;;;;;;4.50;3.33;;;;;;;;;;12575045;23;20014;-81
2022/07/21 17:13:06;;;;;;;3.85;3.40;;;;;;;;;;12575918;23;20003;-81
2022/07/21 17:18:07;;;;;;;10.32;5.03;;;;;;;;;;12573062;23;20031;-82
2022/07/21 17:23:08;;;;;;;16.63;7.43;;;;;;;;;;12574179;23;20006;-82
2022/07/21 17:28:09;;;;;;;59.72;19.30;;;;;;;;;;12573680;23;20014;-82
2022/07/21 17:33:13;;;;;;;38.55;14.30;;;;;;;;;;12574282;23;20074;-81
2022/07/21 17:38:15;;;;;;;34.17;12.65;;;;;;;;;;12551051;23;20058;-81
2022/07/21 17:43:22;;;;;;;15.35;7.63;;;;;;;;;;12574474;23;20085;-81
2022/07/21 17:48:23;;;;;;;8.20;6.57;;;;;;;;;;12575665;23;20431;-81
2022/07/21 17:53:41;;;;;;;10.55;7.47;;;;;;;;;;12573440;23;20034;-81
2022/07/21 17:58:57;;;;;;;47.97;19.73;;;;;;;;;;12550861;23;20037;-81
2022/07/21 18:04:03;;;;;;;24.17;11.65;;;;;;;;;;12573355;23;20011;-82
2022/07/21 18:09:14;;;;;;;49.60;20.38;;;;;;;;;;12573259;23;20007;-81
2022/07/21 18:14:50;;;;;;;28.92;13.20;;;;;;;;;;12573629;23;20010;-81
2022/07/21 18:19:59;;;;;;;27.67;13.90;;;;;;;;;;12573687;23;20344;-81
2022/07/21 18:25:04;;;;;;;9.77;7.65;;;;;;;;;;12588045;23;20427;-81
2022/07/21 18:30:22;;;;;;;53.45;21.60;;;;;;;;;;12608478;23;20010;-81
2022/07/21 18:35:25;;;;;;;21.17;11.70;;;;;;;;;;12608475;23;20027;-82
2022/07/21 18:40:27;;;;;;;17.63;10.32;;;;;;;;;;12583873;23;20021;-81
2022/07/21 18:45:39;;;;;;;10.18;7.68;;;;;;;;;;12608565;23;20006;-82
2022/07/21 18:50:53;;;;;;;36.63;16.00;;;;;;;;;;12609387;23;20074;-81
2022/07/21 18:56:02;;;;;;;25.85;12.32;;;;;;;;;;12632791;23;20046;-81
2022/07/21 19:01:15;;;;;;;22.50;10.45;;;;;;;;;;12611331;23;20003;-82
2022/07/21 19:06:27;;;;;;;18.25;10.52;;;;;;;;;;12612305;23;20011;-82
2022/07/21 19:11:32;;;;;;;15.85;9.48;;;;;;;;;;12614697;23;20121;-81
2022/07/21 19:16:42;;;;;;;11.57;8.18;;;;;;;;;;12615048;23;20010;-81
2022/07/21 19:22:04;;;;;;;13.13;8.30;;;;;;;;;;12638248;23;20065;-82
